sensor_id;sensor_type;location;lat;lon;timestamp;temperature;humidity
48876;DHT22;34689;51.644;5.618;2023-02-15T00:01:08;5.20;99.90
48876;DHT22;34689;51.644;5.618;2023-02-15T00:03:34;5.10;99.90
48876;DHT22;34689;51.644;5.618;2023-02-15T00:05:59;5.10;99.90
48876;DHT22;34689;51.644;5.618;2023-02-15T00:08:25;5.10;99.90
48876;DHT22;34689;51.644;5.618;2023-02-15T00:10:50;5.10;99.90
48876;DHT22;34689;51.644;5.618;2023-02-15T00:13:16;5.00;99.90
48876;DHT22;34689;51.644;5.618;2023-02-15T00:15:41;5.00;99.90
48876;DHT22;34689;51.644;5.618;2023-02-15T00:18:07;5.00;99.90
48876;DHT22;34689;51.644;5.618;2023-02-15T00:20:32;5.00;99.90
48876;DHT22;34689;51.644;5.618;2023-02-15T00:22:58;5.00;99.90
48876;DHT22;34689;51.644;5.618;2023-02-15T00:25:24;5.00;99.90
48876;DHT22;34689;51.644;5.618;2023-02-15T00:27:49;5.00;99.90
48876;DHT22;34689;51.644;5.618;2023-02-15T00:30:15;5.00;99.90
48876;DHT22;34689;51.644;5.618;2023-02-15T00:32:40;5.00;99.90
48876;DHT22;34689;51.644;5.618;2023-02-15T00:35:06;4.90;99.90
48876;DHT22;34689;51.644;5.618;2023-02-15T00:37:32;4.90;99.90
48876;DHT22;34689;51.644;5.618;2023-02-15T00:39:58;4.90;99.90
48876;DHT22;34689;51.644;5.618;2023-02-15T00:42:23;4.90;99.90
48876;DHT22;34689;51.644;5.618;2023-02-15T00:44:49;4.80;99.90
48876;DHT22;34689;51.644;5.618;2023-02-15T00:47:15;4.80;99.90
48876;DHT22;34689;51.644;5.618;2023-02-15T00:49:41;4.80;99.90
48876;DHT22;34689;51.644;5.618;2023-02-15T00:52:06;4.80;99.90
48876;DHT22;34689;51.644;5.618;2023-02-15T00:54:32;4.70;99.90
48876;DHT22;34689;51.644;5.618;2023-02-15T00:56:57;4.70;99.90
48876;DHT22;34689;51.644;5.618;2023-02-15T00:59:23;4.70;99.90
48876;DHT22;34689;51.644;5.618;2023-02-15T01:01:48;4.70;99.90
48876;DHT22;34689;51.644;5.618;2023-02-15T01:04:14;4.70;99.90
48876;DHT22;34689;51.644;5.618;2023-02-15T01:06:39;4.70;99.90
48876;DHT22;34689;51.644;5.618;2023-02-15T01:09:05;4.70;99.90
48876;DHT22;34689;51.644;5.618;2023-02-15T01:11:30;4.70;99.90
48876;DHT22;34689;51.644;5.618;2023-02-15T01:13:56;4.70;99.90
48876;DHT22;34689;51.644;5.618;2023-02-15T01:16:23;4.70;99.90
48876;DHT22;34689;51.644;5.618;2023-02-15T01:18:51;4.60;99.90
48876;DHT22;34689;51.644;5.618;2023-02-15T01:21:21;4.60;99.90
48876;DHT22;34689;51.644;5.618;2023-02-15T01:23:47;4.60;99.90
48876;DHT22;34689;51.644;5.618;2023-02-15T01:26:12;4.60;99.90
48876;DHT22;34689;51.644;5.618;2023-02-15T01:28:38;4.60;99.90
48876;DHT22;34689;51.644;5.618;2023-02-15T01:31:07;4.60;99.90
48876;DHT22;34689;51.644;5.618;2023-02-15T01:33:34;4.60;99.90
48876;DHT22;34689;51.644;5.618;2023-02-15T01:36:00;4.60;99.90
48876;DHT22;34689;51.644;5.618;2023-02-15T01:38:26;4.60;99.90
48876;DHT22;34689;51.644;5.618;2023-02-15T01:40:51;4.60;99.90
48876;DHT22;34689;51.644;5.618;2023-02-15T01:43:18;4.60;99.90
48876;DHT22;34689;51.644;5.618;2023-02-15T01:45:43;4.50;99.90
48876;DHT22;34689;51.644;5.618;2023-02-15T01:48:19;4.60;99.90
48876;DHT22;34689;51.644;5.618;2023-02-15T01:50:50;4.50;99.90
48876;DHT22;34689;51.644;5.618;2023-02-15T01:55:55;4.50;99.90
48876;DHT22;34689;51.644;5.618;2023-02-15T01:58:22;4.50;99.90
48876;DHT22;34689;51.644;5.618;2023-02-15T02:00:49;4.50;99.90
48876;DHT22;34689;51.644;5.618;2023-02-15T02:03:15;4.40;99.90
48876;DHT22;34689;51.644;5.618;2023-02-15T02:05:41;4.50;99.90
48876;DHT22;34689;51.644;5.618;2023-02-15T02:08:06;4.40;99.90
48876;DHT22;34689;51.644;5.618;2023-02-15T02:10:33;4.40;99.90
48876;DHT22;34689;51.644;5.618;2023-02-15T02:12:59;4.40;99.90
48876;DHT22;34689;51.644;5.618;2023-02-15T02:21:09;4.30;99.90
48876;DHT22;34689;51.644;5.618;2023-02-15T02:23:36;4.30;99.90
48876;DHT22;34689;51.644;5.618;2023-02-15T02:26:31;4.30;99.90
48876;DHT22;34689;51.644;5.618;2023-02-15T02:28:59;4.30;99.90
48876;DHT22;34689;51.644;5.618;2023-02-15T02:36:49;4.20;99.90
48876;DHT22;34689;51.644;5.618;2023-02-15T02:46:54;4.20;99.90
48876;DHT22;34689;51.644;5.618;2023-02-15T02:49:37;4.20;99.90
48876;DHT22;34689;51.644;5.618;2023-02-15T02:52:31;4.20;99.90
48876;DHT22;34689;51.644;5.618;2023-02-15T02:54:49;4.20;99.90
48876;DHT22;34689;51.644;5.618;2023-02-15T02:57:14;4.10;99.90
48876;DHT22;34689;51.644;5.618;2023-02-15T02:59:41;4.10;99.90
48876;DHT22;34689;51.644;5.618;2023-02-15T03:02:11;4.20;99.90
48876;DHT22;34689;51.644;5.618;2023-02-15T03:04:39;4.10;99.90
48876;DHT22;34689;51.644;5.618;2023-02-15T03:07:08;4.10;99.90
48876;DHT22;34689;51.644;5.618;2023-02-15T03:09:38;4.10;99.90
48876;DHT22;34689;51.644;5.618;2023-02-15T03:12:11;4.10;99.90
48876;DHT22;34689;51.644;5.618;2023-02-15T03:14:38;4.10;99.90
48876;DHT22;34689;51.644;5.618;2023-02-15T03:17:04;4.00;99.90
48876;DHT22;34689;51.644;5.618;2023-02-15T03:19:31;4.00;99.90
48876;DHT22;34689;51.644;5.618;2023-02-15T03:21:59;4.00;99.90
48876;DHT22;34689;51.644;5.618;2023-02-15T03:24:35;4.00;99.90
48876;DHT22;34689;51.644;5.618;2023-02-15T03:27:02;4.00;99.90
48876;DHT22;34689;51.644;5.618;2023-02-15T03:29:29;4.00;99.90
48876;DHT22;34689;51.644;5.618;2023-02-15T03:31:59;4.00;99.90
48876;DHT22;34689;51.644;5.618;2023-02-15T03:34:25;4.00;99.90
48876;DHT22;34689;51.644;5.618;2023-02-15T03:36:52;4.00;99.90
48876;DHT22;34689;51.644;5.618;2023-02-15T03:47:13;3.90;99.90
48876;DHT22;34689;51.644;5.618;2023-02-15T03:49:57;3.90;99.90
48876;DHT22;34689;51.644;5.618;2023-02-15T03:52:28;3.90;99.90
48876;DHT22;34689;51.644;5.618;2023-02-15T03:54:55;3.90;99.90
48876;DHT22;34689;51.644;5.618;2023-02-15T03:57:21;3.90;99.90
48876;DHT22;34689;51.644;5.618;2023-02-15T04:00:11;3.90;99.90
48876;DHT22;34689;51.644;5.618;2023-02-15T04:03:38;3.80;99.90
48876;DHT22;34689;51.644;5.618;2023-02-15T04:05:45;3.80;99.90
48876;DHT22;34689;51.644;5.618;2023-02-15T04:08:11;3.80;99.90
48876;DHT22;34689;51.644;5.618;2023-02-15T04:10:37;3.80;99.90
48876;DHT22;34689;51.644;5.618;2023-02-15T04:13:22;3.70;99.90
48876;DHT22;34689;51.644;5.618;2023-02-15T04:15:47;3.70;99.90
48876;DHT22;34689;51.644;5.618;2023-02-15T04:18:29;3.70;99.90
48876;DHT22;34689;51.644;5.618;2023-02-15T04:21:13;3.70;99.90
48876;DHT22;34689;51.644;5.618;2023-02-15T04:23:57;3.60;99.90
48876;DHT22;34689;51.644;5.618;2023-02-15T04:26:42;3.60;99.90
48876;DHT22;34689;51.644;5.618;2023-02-15T04:29:08;3.50;99.90
48876;DHT22;34689;51.644;5.618;2023-02-15T04:31:33;3.50;99.90
48876;DHT22;34689;51.644;5.618;2023-02-15T04:33:59;3.50;99.90
48876;DHT22;34689;51.644;5.618;2023-02-15T04:36:24;3.50;99.90
48876;DHT22;34689;51.644;5.618;2023-02-15T04:38:49;3.50;99.90
48876;DHT22;34689;51.644;5.618;2023-02-15T04:41:15;3.50;99.90
48876;DHT22;34689;51.644;5.618;2023-02-15T04:43:43;3.40;99.90
48876;DHT22;34689;51.644;5.618;2023-02-15T04:46:08;3.40;99.90
48876;DHT22;34689;51.644;5.618;2023-02-15T04:48:34;3.40;99.90
48876;DHT22;34689;51.644;5.618;2023-02-15T04:51:04;3.30;99.90
48876;DHT22;34689;51.644;5.618;2023-02-15T04:53:30;3.30;99.90
48876;DHT22;34689;51.644;5.618;2023-02-15T04:55:55;3.30;99.90
48876;DHT22;34689;51.644;5.618;2023-02-15T04:58:21;3.30;99.90
48876;DHT22;34689;51.644;5.618;2023-02-15T05:00:46;3.20;99.90
48876;DHT22;34689;51.644;5.618;2023-02-15T05:03:12;3.30;99.90
48876;DHT22;34689;51.644;5.618;2023-02-15T05:05:37;3.20;99.90
48876;DHT22;34689;51.644;5.618;2023-02-15T05:08:03;3.20;99.90
48876;DHT22;34689;51.644;5.618;2023-02-15T05:10:29;3.20;99.90
48876;DHT22;34689;51.644;5.618;2023-02-15T05:12:54;3.30;99.90
48876;DHT22;34689;51.644;5.618;2023-02-15T05:15:20;3.30;99.90
48876;DHT22;34689;51.644;5.618;2023-02-15T05:17:45;3.30;99.90
48876;DHT22;34689;51.644;5.618;2023-02-15T05:20:11;3.30;99.90
48876;DHT22;34689;51.644;5.618;2023-02-15T05:22:36;3.20;99.90
48876;DHT22;34689;51.644;5.618;2023-02-15T05:25:02;3.20;99.90
48876;DHT22;34689;51.644;5.618;2023-02-15T05:27:46;3.30;99.90
48876;DHT22;34689;51.644;5.618;2023-02-15T05:30:30;3.20;99.90
48876;DHT22;34689;51.644;5.618;2023-02-15T05:32:56;3.30;99.90
48876;DHT22;34689;51.644;5.618;2023-02-15T05:35:22;3.30;99.90
48876;DHT22;34689;51.644;5.618;2023-02-15T05:37:47;3.30;99.90
48876;DHT22;34689;51.644;5.618;2023-02-15T05:40:13;3.30;99.90
48876;DHT22;34689;51.644;5.618;2023-02-15T05:42:38;3.30;99.90
48876;DHT22;34689;51.644;5.618;2023-02-15T05:45:04;3.30;99.90
48876;DHT22;34689;51.644;5.618;2023-02-15T05:47:30;3.30;99.90
48876;DHT22;34689;51.644;5.618;2023-02-15T05:52:59;3.20;99.90
48876;DHT22;34689;51.644;5.618;2023-02-15T05:55:24;3.20;99.90
48876;DHT22;34689;51.644;5.618;2023-02-15T05:57:50;3.20;99.90
48876;DHT22;34689;51.644;5.618;2023-02-15T06:00:16;3.10;99.90
48876;DHT22;34689;51.644;5.618;2023-02-15T06:02:41;3.10;99.90
48876;DHT22;34689;51.644;5.618;2023-02-15T06:05:07;3.10;99.90
48876;DHT22;34689;51.644;5.618;2023-02-15T06:07:33;3.00;99.90
48876;DHT22;34689;51.644;5.618;2023-02-15T06:09:58;3.00;99.90
48876;DHT22;34689;51.644;5.618;2023-02-15T06:12:24;2.90;99.90
48876;DHT22;34689;51.644;5.618;2023-02-15T06:14:53;2.90;99.90
48876;DHT22;34689;51.644;5.618;2023-02-15T06:17:18;2.90;99.90
48876;DHT22;34689;51.644;5.618;2023-02-15T06:19:44;2.90;99.90
48876;DHT22;34689;51.644;5.618;2023-02-15T06:22:11;2.90;99.90
48876;DHT22;34689;51.644;5.618;2023-02-15T06:24:39;2.90;99.90
48876;DHT22;34689;51.644;5.618;2023-02-15T06:27:08;2.80;99.90
48876;DHT22;34689;51.644;5.618;2023-02-15T06:29:34;2.80;99.90
48876;DHT22;34689;51.644;5.618;2023-02-15T06:32:00;2.80;99.90
48876;DHT22;34689;51.644;5.618;2023-02-15T06:34:26;2.90;99.90
48876;DHT22;34689;51.644;5.618;2023-02-15T06:36:51;2.90;99.90
48876;DHT22;34689;51.644;5.618;2023-02-15T06:39:17;2.90;99.90
48876;DHT22;34689;51.644;5.618;2023-02-15T06:41:43;2.90;99.90
48876;DHT22;34689;51.644;5.618;2023-02-15T06:44:09;2.90;99.90
48876;DHT22;34689;51.644;5.618;2023-02-15T06:46:35;2.90;99.90
48876;DHT22;34689;51.644;5.618;2023-02-15T06:49:00;2.90;99.90
48876;DHT22;34689;51.644;5.618;2023-02-15T06:51:29;2.90;99.90
48876;DHT22;34689;51.644;5.618;2023-02-15T06:53:54;2.90;99.90
48876;DHT22;34689;51.644;5.618;2023-02-15T06:56:20;2.90;99.90
48876;DHT22;34689;51.644;5.618;2023-02-15T06:58:45;2.90;99.90
48876;DHT22;34689;51.644;5.618;2023-02-15T07:01:11;2.90;99.90
48876;DHT22;34689;51.644;5.618;2023-02-15T07:03:40;2.90;99.90
48876;DHT22;34689;51.644;5.618;2023-02-15T07:06:06;2.90;99.90
48876;DHT22;34689;51.644;5.618;2023-02-15T07:08:34;2.90;99.90
48876;DHT22;34689;51.644;5.618;2023-02-15T07:11:00;2.90;99.90
48876;DHT22;34689;51.644;5.618;2023-02-15T07:13:44;2.90;99.90
48876;DHT22;34689;51.644;5.618;2023-02-15T07:16:10;2.90;99.90
48876;DHT22;34689;51.644;5.618;2023-02-15T07:18:36;2.90;99.90
48876;DHT22;34689;51.644;5.618;2023-02-15T07:21:01;2.90;99.90
48876;DHT22;34689;51.644;5.618;2023-02-15T07:23:27;2.90;99.90
48876;DHT22;34689;51.644;5.618;2023-02-15T07:25:56;3.00;99.90
48876;DHT22;34689;51.644;5.618;2023-02-15T07:28:22;2.90;99.90
48876;DHT22;34689;51.644;5.618;2023-02-15T07:30:51;2.90;99.90
48876;DHT22;34689;51.644;5.618;2023-02-15T07:33:19;2.90;99.90
48876;DHT22;34689;51.644;5.618;2023-02-15T07:35:51;3.00;99.90
48876;DHT22;34689;51.644;5.618;2023-02-15T07:38:18;3.00;99.90
48876;DHT22;34689;51.644;5.618;2023-02-15T07:40:44;3.10;99.90
48876;DHT22;34689;51.644;5.618;2023-02-15T07:43:10;3.10;99.90
48876;DHT22;34689;51.644;5.618;2023-02-15T07:45:36;3.10;99.90
48876;DHT22;34689;51.644;5.618;2023-02-15T07:48:02;3.10;99.90
48876;DHT22;34689;51.644;5.618;2023-02-15T07:50:28;3.10;99.90
48876;DHT22;34689;51.644;5.618;2023-02-15T07:52:53;3.10;99.90
48876;DHT22;34689;51.644;5.618;2023-02-15T07:55:19;3.10;99.90
48876;DHT22;34689;51.644;5.618;2023-02-15T07:57:45;3.10;99.90
48876;DHT22;34689;51.644;5.618;2023-02-15T08:00:13;3.10;99.90
48876;DHT22;34689;51.644;5.618;2023-02-15T08:05:41;3.20;99.90
48876;DHT22;34689;51.644;5.618;2023-02-15T08:08:08;3.20;99.90
48876;DHT22;34689;51.644;5.618;2023-02-15T08:11:01;3.30;99.90
48876;DHT22;34689;51.644;5.618;2023-02-15T08:13:46;3.30;99.90
48876;DHT22;34689;51.644;5.618;2023-02-15T08:19:01;3.30;99.90
48876;DHT22;34689;51.644;5.618;2023-02-15T08:21:27;3.40;99.90
48876;DHT22;34689;51.644;5.618;2023-02-15T08:23:53;3.40;99.90
48876;DHT22;34689;51.644;5.618;2023-02-15T08:26:19;3.40;99.90
48876;DHT22;34689;51.644;5.618;2023-02-15T08:28:45;3.40;99.90
48876;DHT22;34689;51.644;5.618;2023-02-15T08:31:12;3.50;99.90
48876;DHT22;34689;51.644;5.618;2023-02-15T08:33:39;3.50;99.90
48876;DHT22;34689;51.644;5.618;2023-02-15T08:36:07;3.50;99.90
48876;DHT22;34689;51.644;5.618;2023-02-15T08:38:33;3.50;99.90
48876;DHT22;34689;51.644;5.618;2023-02-15T08:44:00;3.70;99.90
48876;DHT22;34689;51.644;5.618;2023-02-15T08:46:30;3.80;99.90
48876;DHT22;34689;51.644;5.618;2023-02-15T08:48:56;3.80;99.90
48876;DHT22;34689;51.644;5.618;2023-02-15T08:51:27;3.90;99.90
48876;DHT22;34689;51.644;5.618;2023-02-15T08:53:54;4.00;99.90
48876;DHT22;34689;51.644;5.618;2023-02-15T08:56:39;4.00;99.90
48876;DHT22;34689;51.644;5.618;2023-02-15T08:59:05;4.10;99.90
48876;DHT22;34689;51.644;5.618;2023-02-15T09:01:32;4.20;99.90
48876;DHT22;34689;51.644;5.618;2023-02-15T09:03:58;4.30;99.90
48876;DHT22;34689;51.644;5.618;2023-02-15T09:06:27;4.40;99.90
48876;DHT22;34689;51.644;5.618;2023-02-15T09:08:56;4.50;99.90
48876;DHT22;34689;51.644;5.618;2023-02-15T09:11:23;4.50;99.90
48876;DHT22;34689;51.644;5.618;2023-02-15T09:13:50;4.60;99.90
48876;DHT22;34689;51.644;5.618;2023-02-15T09:16:17;4.70;99.90
48876;DHT22;34689;51.644;5.618;2023-02-15T09:18:43;4.70;99.90
48876;DHT22;34689;51.644;5.618;2023-02-15T09:21:11;4.80;99.90
48876;DHT22;34689;51.644;5.618;2023-02-15T09:23:39;4.90;99.90
48876;DHT22;34689;51.644;5.618;2023-02-15T09:26:05;4.90;99.90
48876;DHT22;34689;51.644;5.618;2023-02-15T09:28:31;5.00;99.90
48876;DHT22;34689;51.644;5.618;2023-02-15T09:31:04;5.10;99.90
48876;DHT22;34689;51.644;5.618;2023-02-15T09:33:29;5.10;99.90
48876;DHT22;34689;51.644;5.618;2023-02-15T09:35:55;5.20;99.90
48876;DHT22;34689;51.644;5.618;2023-02-15T09:38:22;5.30;99.90
48876;DHT22;34689;51.644;5.618;2023-02-15T09:40:49;5.30;99.90
48876;DHT22;34689;51.644;5.618;2023-02-15T09:43:23;5.50;99.90
48876;DHT22;34689;51.644;5.618;2023-02-15T09:46:04;5.60;99.90
48876;DHT22;34689;51.644;5.618;2023-02-15T09:48:38;5.70;99.90
48876;DHT22;34689;51.644;5.618;2023-02-15T09:51:19;6.10;99.90
48876;DHT22;34689;51.644;5.618;2023-02-15T09:56:31;8.90;99.90
48876;DHT22;34689;51.644;5.618;2023-02-15T09:59:15;10.40;99.90
48876;DHT22;34689;51.644;5.618;2023-02-15T10:07:17;15.00;99.90
48876;DHT22;34689;51.644;5.618;2023-02-15T10:12:42;17.40;93.90
48876;DHT22;34689;51.644;5.618;2023-02-15T10:15:23;18.30;91.60
48876;DHT22;34689;51.644;5.618;2023-02-15T10:28:05;18.60;80.50
48876;DHT22;34689;51.644;5.618;2023-02-15T10:33:04;18.00;80.00
48876;DHT22;34689;51.644;5.618;2023-02-15T10:35:41;17.50;80.80
48876;DHT22;34689;51.644;5.618;2023-02-15T10:45:58;14.80;87.90
48876;DHT22;34689;51.644;5.618;2023-02-15T10:51:00;14.00;90.90
48876;DHT22;34689;51.644;5.618;2023-02-15T10:55:56;13.70;91.80
48876;DHT22;34689;51.644;5.618;2023-02-15T11:06:10;13.10;93.60
48876;DHT22;34689;51.644;5.618;2023-02-15T11:08:42;13.00;94.40
48876;DHT22;34689;51.644;5.618;2023-02-15T11:11:15;12.90;94.90
48876;DHT22;34689;51.644;5.618;2023-02-15T11:13:48;12.80;95.50
48876;DHT22;34689;51.644;5.618;2023-02-15T11:16:17;12.80;95.40
48876;DHT22;34689;51.644;5.618;2023-02-15T11:19:00;12.70;95.70
48876;DHT22;34689;51.644;5.618;2023-02-15T11:21:33;12.60;96.20
48876;DHT22;34689;51.644;5.618;2023-02-15T11:24:14;12.60;96.60
48876;DHT22;34689;51.644;5.618;2023-02-15T11:26:43;12.50;96.80
48876;DHT22;34689;51.644;5.618;2023-02-15T11:29:24;12.50;96.90
48876;DHT22;34689;51.644;5.618;2023-02-15T11:31:54;12.40;97.00
48876;DHT22;34689;51.644;5.618;2023-02-15T11:34:26;12.20;97.00
48876;DHT22;34689;51.644;5.618;2023-02-15T11:36:52;12.20;97.40
48876;DHT22;34689;51.644;5.618;2023-02-15T11:39:19;12.10;97.80
48876;DHT22;34689;51.644;5.618;2023-02-15T11:41:52;12.00;98.00
48876;DHT22;34689;51.644;5.618;2023-02-15T11:44:21;12.00;98.20
48876;DHT22;34689;51.644;5.618;2023-02-15T11:46:50;12.00;98.20
48876;DHT22;34689;51.644;5.618;2023-02-15T11:49:21;12.00;98.50
48876;DHT22;34689;51.644;5.618;2023-02-15T11:51:49;11.90;98.30
48876;DHT22;34689;51.644;5.618;2023-02-15T11:54:19;12.00;98.30
48876;DHT22;34689;51.644;5.618;2023-02-15T11:56:48;12.00;98.40
48876;DHT22;34689;51.644;5.618;2023-02-15T11:59:16;12.00;98.30
48876;DHT22;34689;51.644;5.618;2023-02-15T12:01:44;12.00;98.30
48876;DHT22;34689;51.644;5.618;2023-02-15T12:04:16;12.10;98.20
48876;DHT22;34689;51.644;5.618;2023-02-15T12:09:42;12.10;98.40
48876;DHT22;34689;51.644;5.618;2023-02-15T12:12:22;12.20;98.30
48876;DHT22;34689;51.644;5.618;2023-02-15T12:14:58;12.20;98.20
48876;DHT22;34689;51.644;5.618;2023-02-15T12:17:26;12.20;98.50
48876;DHT22;34689;51.644;5.618;2023-02-15T12:19:55;12.20;98.40
48876;DHT22;34689;51.644;5.618;2023-02-15T12:22:25;12.20;98.20
48876;DHT22;34689;51.644;5.618;2023-02-15T12:24:52;12.20;98.60
48876;DHT22;34689;51.644;5.618;2023-02-15T12:27:29;12.30;98.40
48876;DHT22;34689;51.644;5.618;2023-02-15T12:29:59;12.30;98.50
48876;DHT22;34689;51.644;5.618;2023-02-15T12:32:34;12.40;98.30
48876;DHT22;34689;51.644;5.618;2023-02-15T12:35:13;12.40;97.90
48876;DHT22;34689;51.644;5.618;2023-02-15T12:37:39;12.50;98.00
48876;DHT22;34689;51.644;5.618;2023-02-15T12:40:24;12.50;98.20
48876;DHT22;34689;51.644;5.618;2023-02-15T12:42:51;12.40;97.80
48876;DHT22;34689;51.644;5.618;2023-02-15T12:45:22;12.50;97.90
48876;DHT22;34689;51.644;5.618;2023-02-15T12:48:07;12.50;98.20
48876;DHT22;34689;51.644;5.618;2023-02-15T12:50:33;12.40;97.90
48876;DHT22;34689;51.644;5.618;2023-02-15T12:53:06;12.40;97.90
48876;DHT22;34689;51.644;5.618;2023-02-15T12:55:31;12.50;97.90
48876;DHT22;34689;51.644;5.618;2023-02-15T13:00:31;12.50;97.70
48876;DHT22;34689;51.644;5.618;2023-02-15T13:02:57;12.50;98.00
48876;DHT22;34689;51.644;5.618;2023-02-15T13:05:28;12.50;97.90
48876;DHT22;34689;51.644;5.618;2023-02-15T13:07:58;12.50;98.30
48876;DHT22;34689;51.644;5.618;2023-02-15T13:10:28;12.50;97.70
48876;DHT22;34689;51.644;5.618;2023-02-15T13:12:57;12.50;98.20
48876;DHT22;34689;51.644;5.618;2023-02-15T13:15:41;12.50;98.10
48876;DHT22;34689;51.644;5.618;2023-02-15T13:18:14;12.60;97.90
48876;DHT22;34689;51.644;5.618;2023-02-15T13:20:40;12.50;98.00
48876;DHT22;34689;51.644;5.618;2023-02-15T13:26:03;12.60;98.20
48876;DHT22;34689;51.644;5.618;2023-02-15T13:28:36;12.60;98.30
48876;DHT22;34689;51.644;5.618;2023-02-15T13:31:11;12.60;98.20
48876;DHT22;34689;51.644;5.618;2023-02-15T13:33:36;12.60;97.80
48876;DHT22;34689;51.644;5.618;2023-02-15T13:38:53;12.60;97.90
48876;DHT22;34689;51.644;5.618;2023-02-15T13:43:52;12.60;97.90
48876;DHT22;34689;51.644;5.618;2023-02-15T13:46:33;12.60;97.90
48876;DHT22;34689;51.644;5.618;2023-02-15T13:51:36;12.60;98.10
48876;DHT22;34689;51.644;5.618;2023-02-15T14:02:30;12.50;98.60
48876;DHT22;34689;51.644;5.618;2023-02-15T14:22:59;12.50;99.60
48876;DHT22;34689;51.644;5.618;2023-02-15T14:25:35;12.60;99.30
48876;DHT22;34689;51.644;5.618;2023-02-15T14:31:01;12.60;99.20
48876;DHT22;34689;51.644;5.618;2023-02-15T14:33:35;12.60;99.40
48876;DHT22;34689;51.644;5.618;2023-02-15T14:36:03;12.60;99.40
48876;DHT22;34689;51.644;5.618;2023-02-15T14:49:11;12.50;99.90
48876;DHT22;34689;51.644;5.618;2023-02-15T14:56:43;12.40;99.90
48876;DHT22;34689;51.644;5.618;2023-02-15T14:59:21;12.40;99.90
48876;DHT22;34689;51.644;5.618;2023-02-15T15:01:58;12.30;99.90
48876;DHT22;34689;51.644;5.618;2023-02-15T15:04:29;12.30;99.90
48876;DHT22;34689;51.644;5.618;2023-02-15T15:07:03;12.20;99.90
48876;DHT22;34689;51.644;5.618;2023-02-15T15:09:30;12.20;99.90
48876;DHT22;34689;51.644;5.618;2023-02-15T15:12:36;12.20;99.90
48876;DHT22;34689;51.644;5.618;2023-02-15T15:15:01;12.20;99.90
48876;DHT22;34689;51.644;5.618;2023-02-15T15:19:59;12.10;99.90
48876;DHT22;34689;51.644;5.618;2023-02-15T15:22:26;12.00;99.90
48876;DHT22;34689;51.644;5.618;2023-02-15T15:24:59;12.00;99.90
48876;DHT22;34689;51.644;5.618;2023-02-15T15:35:22;12.00;99.90
48876;DHT22;34689;51.644;5.618;2023-02-15T15:37:57;11.90;99.90
48876;DHT22;34689;51.644;5.618;2023-02-15T15:50:47;11.70;99.90
48876;DHT22;34689;51.644;5.618;2023-02-15T15:53:25;11.70;99.90
48876;DHT22;34689;51.644;5.618;2023-02-15T15:55:52;11.70;99.90
48876;DHT22;34689;51.644;5.618;2023-02-15T15:58:23;11.60;99.90
48876;DHT22;34689;51.644;5.618;2023-02-15T16:00:57;11.60;99.90
48876;DHT22;34689;51.644;5.618;2023-02-15T16:03:25;11.50;99.90
48876;DHT22;34689;51.644;5.618;2023-02-15T16:05:51;11.50;99.90
48876;DHT22;34689;51.644;5.618;2023-02-15T16:08:29;11.50;99.90
48876;DHT22;34689;51.644;5.618;2023-02-15T16:10:58;11.40;99.90
48876;DHT22;34689;51.644;5.618;2023-02-15T16:13:24;11.40;99.90
48876;DHT22;34689;51.644;5.618;2023-02-15T16:15:56;11.30;99.90
48876;DHT22;34689;51.644;5.618;2023-02-15T16:18:24;11.30;99.90
48876;DHT22;34689;51.644;5.618;2023-02-15T16:28:14;11.10;99.90
48876;DHT22;34689;51.644;5.618;2023-02-15T16:30:43;11.00;99.90
48876;DHT22;34689;51.644;5.618;2023-02-15T16:33:16;11.00;99.90
48876;DHT22;34689;51.644;5.618;2023-02-15T16:35:55;11.00;99.90
48876;DHT22;34689;51.644;5.618;2023-02-15T16:39:12;10.90;99.90
48876;DHT22;34689;51.644;5.618;2023-02-15T16:41:16;10.90;99.90
48876;DHT22;34689;51.644;5.618;2023-02-15T16:43:43;10.90;99.90
48876;DHT22;34689;51.644;5.618;2023-02-15T16:46:16;10.80;99.90
48876;DHT22;34689;51.644;5.618;2023-02-15T16:48:45;10.80;99.90
48876;DHT22;34689;51.644;5.618;2023-02-15T16:51:18;10.80;99.90
48876;DHT22;34689;51.644;5.618;2023-02-15T16:53:46;10.70;99.90
48876;DHT22;34689;51.644;5.618;2023-02-15T16:56:12;10.70;99.90
48876;DHT22;34689;51.644;5.618;2023-02-15T16:58:41;10.60;99.90
48876;DHT22;34689;51.644;5.618;2023-02-15T17:01:10;10.60;99.90
48876;DHT22;34689;51.644;5.618;2023-02-15T17:03:38;10.50;99.90
48876;DHT22;34689;51.644;5.618;2023-02-15T17:06:16;10.50;99.90
48876;DHT22;34689;51.644;5.618;2023-02-15T17:08:43;10.40;99.90
48876;DHT22;34689;51.644;5.618;2023-02-15T17:13:38;10.30;99.90
48876;DHT22;34689;51.644;5.618;2023-02-15T17:18:39;10.10;99.90
48876;DHT22;34689;51.644;5.618;2023-02-15T17:23:44;10.10;99.90
48876;DHT22;34689;51.644;5.618;2023-02-15T17:26:32;10.00;99.90
48876;DHT22;34689;51.644;5.618;2023-02-15T17:29:09;10.00;99.90
48876;DHT22;34689;51.644;5.618;2023-02-15T17:31:39;10.00;99.90
48876;DHT22;34689;51.644;5.618;2023-02-15T17:34:05;9.90;99.90
48876;DHT22;34689;51.644;5.618;2023-02-15T17:36:31;9.90;99.90
48876;DHT22;34689;51.644;5.618;2023-02-15T17:41:25;9.70;99.90
48876;DHT22;34689;51.644;5.618;2023-02-15T17:43:51;9.70;99.90
48876;DHT22;34689;51.644;5.618;2023-02-15T17:46:16;9.60;99.90
48876;DHT22;34689;51.644;5.618;2023-02-15T17:48:45;9.60;99.90
48876;DHT22;34689;51.644;5.618;2023-02-15T17:51:11;9.60;99.90
48876;DHT22;34689;51.644;5.618;2023-02-15T17:53:39;9.60;99.90
48876;DHT22;34689;51.644;5.618;2023-02-15T17:56:05;9.50;99.90
48876;DHT22;34689;51.644;5.618;2023-02-15T17:58:35;9.50;99.90
48876;DHT22;34689;51.644;5.618;2023-02-15T18:01:03;9.50;99.90
48876;DHT22;34689;51.644;5.618;2023-02-15T18:03:49;9.50;99.90
48876;DHT22;34689;51.644;5.618;2023-02-15T18:06:37;9.50;99.90
48876;DHT22;34689;51.644;5.618;2023-02-15T18:12:29;9.50;99.90
48876;DHT22;34689;51.644;5.618;2023-02-15T18:14:55;9.40;99.90
48876;DHT22;34689;51.644;5.618;2023-02-15T18:17:24;9.40;99.90
48876;DHT22;34689;51.644;5.618;2023-02-15T18:19:51;9.30;99.90
48876;DHT22;34689;51.644;5.618;2023-02-15T18:22:18;9.30;99.90
48876;DHT22;34689;51.644;5.618;2023-02-15T18:24:45;9.20;99.90
48876;DHT22;34689;51.644;5.618;2023-02-15T18:27:10;9.20;99.90
48876;DHT22;34689;51.644;5.618;2023-02-15T18:29:36;9.10;99.90
48876;DHT22;34689;51.644;5.618;2023-02-15T18:32:02;9.10;99.90
48876;DHT22;34689;51.644;5.618;2023-02-15T18:34:28;9.10;99.90
48876;DHT22;34689;51.644;5.618;2023-02-15T18:36:55;9.00;99.90
48876;DHT22;34689;51.644;5.618;2023-02-15T18:44:53;8.90;99.90
48876;DHT22;34689;51.644;5.618;2023-02-15T18:47:21;8.90;99.90
48876;DHT22;34689;51.644;5.618;2023-02-15T18:49:47;8.80;99.90
48876;DHT22;34689;51.644;5.618;2023-02-15T18:52:15;8.80;99.90
48876;DHT22;34689;51.644;5.618;2023-02-15T18:54:41;8.80;99.90
48876;DHT22;34689;51.644;5.618;2023-02-15T18:57:11;8.70;99.90
48876;DHT22;34689;51.644;5.618;2023-02-15T18:59:37;8.70;99.90
48876;DHT22;34689;51.644;5.618;2023-02-15T19:02:02;8.70;99.90
48876;DHT22;34689;51.644;5.618;2023-02-15T19:04:28;8.60;99.90
48876;DHT22;34689;51.644;5.618;2023-02-15T19:06:53;8.60;99.90